sensor_id;sensor_type;location;lat;lon;timestamp;temperature;humidity
20335;DHT22;10325;51.468;5.804;2023-03-05T00:02:02;16.40;55.00
20335;DHT22;10325;51.468;5.804;2023-03-05T00:04:33;16.40;55.10
20335;DHT22;10325;51.468;5.804;2023-03-05T00:07:02;16.40;55.10
20335;DHT22;10325;51.468;5.804;2023-03-05T00:09:38;16.40;55.10
20335;DHT22;10325;51.468;5.804;2023-03-05T00:12:11;16.40;55.10
20335;DHT22;10325;51.468;5.804;2023-03-05T00:14:42;16.40;55.20
20335;DHT22;10325;51.468;5.804;2023-03-05T00:17:15;16.40;55.20
20335;DHT22;10325;51.468;5.804;2023-03-05T00:19:45;16.30;55.20
20335;DHT22;10325;51.468;5.804;2023-03-05T00:22:16;16.40;55.30
20335;DHT22;10325;51.468;5.804;2023-03-05T00:24:48;16.40;55.40
20335;DHT22;10325;51.468;5.804;2023-03-05T00:27:19;16.40;55.50
20335;DHT22;10325;51.468;5.804;2023-03-05T00:29:51;16.30;55.40
20335;DHT22;10325;51.468;5.804;2023-03-05T00:32:22;16.30;55.50
20335;DHT22;10325;51.468;5.804;2023-03-05T00:34:51;16.30;55.50
20335;DHT22;10325;51.468;5.804;2023-03-05T00:37:23;16.40;55.60
20335;DHT22;10325;51.468;5.804;2023-03-05T00:39:54;16.30;55.60
20335;DHT22;10325;51.468;5.804;2023-03-05T00:42:23;16.30;55.60
20335;DHT22;10325;51.468;5.804;2023-03-05T00:44:54;16.30;55.60
20335;DHT22;10325;51.468;5.804;2023-03-05T00:47:24;16.30;55.60
20335;DHT22;10325;51.468;5.804;2023-03-05T00:49:56;16.30;55.60
20335;DHT22;10325;51.468;5.804;2023-03-05T00:52:24;16.30;55.70
20335;DHT22;10325;51.468;5.804;2023-03-05T00:54:56;16.30;56.00
20335;DHT22;10325;51.468;5.804;2023-03-05T00:57:26;16.30;55.80
20335;DHT22;10325;51.468;5.804;2023-03-05T00:59:56;16.30;55.90
20335;DHT22;10325;51.468;5.804;2023-03-05T01:02:27;16.30;55.90
20335;DHT22;10325;51.468;5.804;2023-03-05T01:05:00;16.30;55.90
20335;DHT22;10325;51.468;5.804;2023-03-05T01:07:28;16.30;55.90
20335;DHT22;10325;51.468;5.804;2023-03-05T01:09:59;16.30;56.00
20335;DHT22;10325;51.468;5.804;2023-03-05T01:12:28;16.30;55.90
20335;DHT22;10325;51.468;5.804;2023-03-05T01:15:00;16.20;56.00
20335;DHT22;10325;51.468;5.804;2023-03-05T01:17:30;16.30;56.10
20335;DHT22;10325;51.468;5.804;2023-03-05T01:19:59;16.30;56.10
20335;DHT22;10325;51.468;5.804;2023-03-05T01:22:29;16.20;56.10
20335;DHT22;10325;51.468;5.804;2023-03-05T01:24:59;16.20;56.10
20335;DHT22;10325;51.468;5.804;2023-03-05T01:27:26;16.20;56.10
20335;DHT22;10325;51.468;5.804;2023-03-05T01:29:54;16.20;56.20
20335;DHT22;10325;51.468;5.804;2023-03-05T01:32:21;16.20;56.20
20335;DHT22;10325;51.468;5.804;2023-03-05T01:34:52;16.30;56.30
20335;DHT22;10325;51.468;5.804;2023-03-05T01:37:22;16.20;56.30
20335;DHT22;10325;51.468;5.804;2023-03-05T01:39:52;16.20;56.30
20335;DHT22;10325;51.468;5.804;2023-03-05T01:42:24;16.20;56.40
20335;DHT22;10325;51.468;5.804;2023-03-05T01:45:16;16.20;56.40
20335;DHT22;10325;51.468;5.804;2023-03-05T01:47:45;16.20;56.40
20335;DHT22;10325;51.468;5.804;2023-03-05T01:50:21;16.20;56.40
20335;DHT22;10325;51.468;5.804;2023-03-05T01:53:05;16.20;56.50
20335;DHT22;10325;51.468;5.804;2023-03-05T01:55:45;16.20;56.50
20335;DHT22;10325;51.468;5.804;2023-03-05T01:58:16;16.20;56.50
20335;DHT22;10325;51.468;5.804;2023-03-05T02:00:51;16.10;57.10
20335;DHT22;10325;51.468;5.804;2023-03-05T02:03:26;16.10;56.60
20335;DHT22;10325;51.468;5.804;2023-03-05T02:05:56;16.20;56.70
20335;DHT22;10325;51.468;5.804;2023-03-05T02:08:27;16.10;56.60
20335;DHT22;10325;51.468;5.804;2023-03-05T02:11:08;16.10;56.70
20335;DHT22;10325;51.468;5.804;2023-03-05T02:13:39;16.10;56.70
20335;DHT22;10325;51.468;5.804;2023-03-05T02:16:13;16.10;56.70
20335;DHT22;10325;51.468;5.804;2023-03-05T02:18:42;16.10;56.80
20335;DHT22;10325;51.468;5.804;2023-03-05T02:21:26;16.10;56.90
20335;DHT22;10325;51.468;5.804;2023-03-05T02:24:11;16.10;56.80
20335;DHT22;10325;51.468;5.804;2023-03-05T02:26:40;16.10;56.90
20335;DHT22;10325;51.468;5.804;2023-03-05T02:29:17;16.10;56.90
20335;DHT22;10325;51.468;5.804;2023-03-05T02:31:48;16.10;57.00
20335;DHT22;10325;51.468;5.804;2023-03-05T02:34:19;16.10;57.00
20335;DHT22;10325;51.468;5.804;2023-03-05T02:36:47;16.10;57.00
20335;DHT22;10325;51.468;5.804;2023-03-05T02:39:32;16.10;57.00
20335;DHT22;10325;51.468;5.804;2023-03-05T02:42:04;16.10;57.00
20335;DHT22;10325;51.468;5.804;2023-03-05T02:44:34;16.00;56.90
20335;DHT22;10325;51.468;5.804;2023-03-05T02:47:04;16.00;57.00
20335;DHT22;10325;51.468;5.804;2023-03-05T02:49:36;16.00;57.70
20335;DHT22;10325;51.468;5.804;2023-03-05T02:52:07;16.00;57.00
20335;DHT22;10325;51.468;5.804;2023-03-05T02:54:39;16.00;57.10
20335;DHT22;10325;51.468;5.804;2023-03-05T02:57:09;16.00;57.10
20335;DHT22;10325;51.468;5.804;2023-03-05T02:59:41;16.10;57.10
20335;DHT22;10325;51.468;5.804;2023-03-05T03:02:12;16.10;57.10
20335;DHT22;10325;51.468;5.804;2023-03-05T03:04:45;16.10;57.10
20335;DHT22;10325;51.468;5.804;2023-03-05T03:07:15;16.10;57.10
20335;DHT22;10325;51.468;5.804;2023-03-05T03:09:47;16.00;57.10
20335;DHT22;10325;51.468;5.804;2023-03-05T03:12:19;16.00;57.10
20335;DHT22;10325;51.468;5.804;2023-03-05T03:14:49;16.10;57.20
20335;DHT22;10325;51.468;5.804;2023-03-05T03:17:19;16.00;57.20
20335;DHT22;10325;51.468;5.804;2023-03-05T03:19:49;16.00;57.20
20335;DHT22;10325;51.468;5.804;2023-03-05T03:22:19;16.00;57.20
20335;DHT22;10325;51.468;5.804;2023-03-05T03:24:51;16.00;57.20
20335;DHT22;10325;51.468;5.804;2023-03-05T03:27:23;16.00;57.20
20335;DHT22;10325;51.468;5.804;2023-03-05T03:29:52;16.00;57.30
20335;DHT22;10325;51.468;5.804;2023-03-05T03:32:21;16.00;57.20
20335;DHT22;10325;51.468;5.804;2023-03-05T03:34:50;16.00;57.10
20335;DHT22;10325;51.468;5.804;2023-03-05T03:37:21;16.00;57.20
20335;DHT22;10325;51.468;5.804;2023-03-05T03:39:52;16.00;57.30
20335;DHT22;10325;51.468;5.804;2023-03-05T03:42:27;16.00;57.30
20335;DHT22;10325;51.468;5.804;2023-03-05T03:45:01;16.00;57.30
20335;DHT22;10325;51.468;5.804;2023-03-05T03:47:31;16.00;57.50
20335;DHT22;10325;51.468;5.804;2023-03-05T03:50:04;16.00;57.40
20335;DHT22;10325;51.468;5.804;2023-03-05T03:52:32;16.00;57.40
20335;DHT22;10325;51.468;5.804;2023-03-05T03:55:03;16.00;57.40
20335;DHT22;10325;51.468;5.804;2023-03-05T03:57:31;16.00;57.40
20335;DHT22;10325;51.468;5.804;2023-03-05T04:00:11;16.00;57.40
20335;DHT22;10325;51.468;5.804;2023-03-05T04:02:41;16.00;57.40
20335;DHT22;10325;51.468;5.804;2023-03-05T04:05:14;16.00;57.30
20335;DHT22;10325;51.468;5.804;2023-03-05T04:07:43;16.00;57.40
20335;DHT22;10325;51.468;5.804;2023-03-05T04:10:16;16.00;57.30
20335;DHT22;10325;51.468;5.804;2023-03-05T04:12:44;16.00;57.30
20335;DHT22;10325;51.468;5.804;2023-03-05T04:15:12;16.00;57.40
20335;DHT22;10325;51.468;5.804;2023-03-05T04:17:44;16.00;57.40
20335;DHT22;10325;51.468;5.804;2023-03-05T04:20:15;16.00;57.30
20335;DHT22;10325;51.468;5.804;2023-03-05T04:22:51;16.00;57.40
20335;DHT22;10325;51.468;5.804;2023-03-05T04:25:17;16.00;57.50
20335;DHT22;10325;51.468;5.804;2023-03-05T04:27:49;15.90;57.40
20335;DHT22;10325;51.468;5.804;2023-03-05T04:30:19;16.00;57.50
20335;DHT22;10325;51.468;5.804;2023-03-05T04:32:49;16.00;57.50
20335;DHT22;10325;51.468;5.804;2023-03-05T04:35:23;16.00;57.50
20335;DHT22;10325;51.468;5.804;2023-03-05T04:37:51;16.00;57.50
20335;DHT22;10325;51.468;5.804;2023-03-05T04:40:21;16.00;57.50
20335;DHT22;10325;51.468;5.804;2023-03-05T04:42:50;16.00;57.50
20335;DHT22;10325;51.468;5.804;2023-03-05T04:45:20;16.00;57.50
20335;DHT22;10325;51.468;5.804;2023-03-05T04:48:03;16.00;57.50
20335;DHT22;10325;51.468;5.804;2023-03-05T04:50:34;15.90;57.50
20335;DHT22;10325;51.468;5.804;2023-03-05T04:53:05;16.00;57.60
20335;DHT22;10325;51.468;5.804;2023-03-05T04:55:35;16.00;57.60
20335;DHT22;10325;51.468;5.804;2023-03-05T04:58:05;16.00;57.60
20335;DHT22;10325;51.468;5.804;2023-03-05T05:00:37;15.90;57.50
20335;DHT22;10325;51.468;5.804;2023-03-05T05:03:08;15.90;57.50
20335;DHT22;10325;51.468;5.804;2023-03-05T05:05:40;15.90;57.50
20335;DHT22;10325;51.468;5.804;2023-03-05T05:08:11;16.00;57.50
20335;DHT22;10325;51.468;5.804;2023-03-05T05:10:40;16.00;57.60
20335;DHT22;10325;51.468;5.804;2023-03-05T05:13:15;15.90;57.70
20335;DHT22;10325;51.468;5.804;2023-03-05T05:15:45;15.90;57.70
20335;DHT22;10325;51.468;5.804;2023-03-05T05:18:15;15.90;57.70
20335;DHT22;10325;51.468;5.804;2023-03-05T05:20:45;15.90;57.70
20335;DHT22;10325;51.468;5.804;2023-03-05T05:23:15;15.90;57.70
20335;DHT22;10325;51.468;5.804;2023-03-05T05:25:59;15.90;57.60
20335;DHT22;10325;51.468;5.804;2023-03-05T05:28:45;15.90;57.70
20335;DHT22;10325;51.468;5.804;2023-03-05T05:31:16;15.90;57.70
20335;DHT22;10325;51.468;5.804;2023-03-05T05:33:48;15.90;57.70
20335;DHT22;10325;51.468;5.804;2023-03-05T05:36:17;15.90;57.70
20335;DHT22;10325;51.468;5.804;2023-03-05T05:38:48;15.90;57.70
20335;DHT22;10325;51.468;5.804;2023-03-05T05:41:21;15.90;57.70
20335;DHT22;10325;51.468;5.804;2023-03-05T05:43:49;15.90;57.70
20335;DHT22;10325;51.468;5.804;2023-03-05T05:46:19;15.90;57.70
20335;DHT22;10325;51.468;5.804;2023-03-05T05:48:47;15.90;57.70
20335;DHT22;10325;51.468;5.804;2023-03-05T05:51:22;15.90;57.80
20335;DHT22;10325;51.468;5.804;2023-03-05T05:53:54;15.90;57.80
20335;DHT22;10325;51.468;5.804;2023-03-05T05:56:21;15.90;57.70
20335;DHT22;10325;51.468;5.804;2023-03-05T05:58:48;15.90;57.70
20335;DHT22;10325;51.468;5.804;2023-03-05T06:01:38;15.90;57.80
20335;DHT22;10325;51.468;5.804;2023-03-05T06:04:10;15.90;57.70
20335;DHT22;10325;51.468;5.804;2023-03-05T06:06:40;15.90;57.70
20335;DHT22;10325;51.468;5.804;2023-03-05T06:09:09;15.90;57.70
20335;DHT22;10325;51.468;5.804;2023-03-05T06:11:39;15.90;57.70
20335;DHT22;10325;51.468;5.804;2023-03-05T06:14:12;15.90;57.60
20335;DHT22;10325;51.468;5.804;2023-03-05T06:16:45;15.90;57.70
20335;DHT22;10325;51.468;5.804;2023-03-05T06:19:15;15.90;57.70
20335;DHT22;10325;51.468;5.804;2023-03-05T06:21:44;15.90;57.70
20335;DHT22;10325;51.468;5.804;2023-03-05T06:24:14;15.90;57.60
20335;DHT22;10325;51.468;5.804;2023-03-05T06:26:43;15.90;58.20
20335;DHT22;10325;51.468;5.804;2023-03-05T06:29:15;15.90;57.60
20335;DHT22;10325;51.468;5.804;2023-03-05T06:31:45;15.90;57.70
20335;DHT22;10325;51.468;5.804;2023-03-05T06:34:16;15.90;57.50
20335;DHT22;10325;51.468;5.804;2023-03-05T06:36:46;15.90;57.60
20335;DHT22;10325;51.468;5.804;2023-03-05T06:39:16;15.90;57.50
20335;DHT22;10325;51.468;5.804;2023-03-05T06:41:51;15.90;57.60
20335;DHT22;10325;51.468;5.804;2023-03-05T06:44:20;15.90;57.50
20335;DHT22;10325;51.468;5.804;2023-03-05T06:46:50;15.90;57.40
20335;DHT22;10325;51.468;5.804;2023-03-05T06:49:17;15.90;57.40
20335;DHT22;10325;51.468;5.804;2023-03-05T06:51:50;15.90;57.40
20335;DHT22;10325;51.468;5.804;2023-03-05T06:54:18;15.90;57.50
20335;DHT22;10325;51.468;5.804;2023-03-05T06:56:48;15.90;57.40
20335;DHT22;10325;51.468;5.804;2023-03-05T06:59:20;15.90;57.40
20335;DHT22;10325;51.468;5.804;2023-03-05T07:01:51;15.80;57.40
20335;DHT22;10325;51.468;5.804;2023-03-05T07:04:22;15.80;57.40
20335;DHT22;10325;51.468;5.804;2023-03-05T07:06:52;15.80;57.40
20335;DHT22;10325;51.468;5.804;2023-03-05T07:09:22;15.80;57.50
20335;DHT22;10325;51.468;5.804;2023-03-05T07:11:52;15.80;57.50
20335;DHT22;10325;51.468;5.804;2023-03-05T07:14:23;15.90;57.40
20335;DHT22;10325;51.468;5.804;2023-03-05T07:16:51;15.80;57.40
20335;DHT22;10325;51.468;5.804;2023-03-05T07:19:21;15.80;57.40
20335;DHT22;10325;51.468;5.804;2023-03-05T07:21:50;15.80;57.40
20335;DHT22;10325;51.468;5.804;2023-03-05T07:24:23;15.80;57.40
20335;DHT22;10325;51.468;5.804;2023-03-05T07:27:00;15.90;57.50
20335;DHT22;10325;51.468;5.804;2023-03-05T07:29:27;15.80;57.40
20335;DHT22;10325;51.468;5.804;2023-03-05T07:31:58;15.80;57.40
20335;DHT22;10325;51.468;5.804;2023-03-05T07:34:26;15.80;57.40
20335;DHT22;10325;51.468;5.804;2023-03-05T07:36:55;15.80;57.40
20335;DHT22;10325;51.468;5.804;2023-03-05T07:39:30;15.80;57.40
20335;DHT22;10325;51.468;5.804;2023-03-05T07:42:09;15.90;57.40
20335;DHT22;10325;51.468;5.804;2023-03-05T07:44:37;15.80;57.40
20335;DHT22;10325;51.468;5.804;2023-03-05T07:47:07;15.80;57.40
20335;DHT22;10325;51.468;5.804;2023-03-05T07:49:36;15.80;57.40
20335;DHT22;10325;51.468;5.804;2023-03-05T07:52:09;15.80;57.60
20335;DHT22;10325;51.468;5.804;2023-03-05T07:54:41;15.90;58.90
20335;DHT22;10325;51.468;5.804;2023-03-05T07:57:09;15.90;58.90
20335;DHT22;10325;51.468;5.804;2023-03-05T07:59:40;16.00;58.20
20335;DHT22;10325;51.468;5.804;2023-03-05T08:02:11;16.00;58.60
20335;DHT22;10325;51.468;5.804;2023-03-05T08:04:53;16.10;58.60
20335;DHT22;10325;51.468;5.804;2023-03-05T08:07:23;16.10;58.60
20335;DHT22;10325;51.468;5.804;2023-03-05T08:09:56;16.10;58.80
20335;DHT22;10325;51.468;5.804;2023-03-05T08:12:27;16.10;58.70
20335;DHT22;10325;51.468;5.804;2023-03-05T08:15:12;16.10;58.70
20335;DHT22;10325;51.468;5.804;2023-03-05T08:17:45;16.10;58.70
20335;DHT22;10325;51.468;5.804;2023-03-05T08:20:16;16.10;58.60
20335;DHT22;10325;51.468;5.804;2023-03-05T08:22:48;16.10;58.70
20335;DHT22;10325;51.468;5.804;2023-03-05T08:25:26;16.10;58.60
20335;DHT22;10325;51.468;5.804;2023-03-05T08:28:05;16.10;58.40
20335;DHT22;10325;51.468;5.804;2023-03-05T08:30:36;16.10;58.30
20335;DHT22;10325;51.468;5.804;2023-03-05T08:33:14;16.20;58.10
20335;DHT22;10325;51.468;5.804;2023-03-05T08:35:47;16.10;58.10
20335;DHT22;10325;51.468;5.804;2023-03-05T08:38:17;16.10;58.20
20335;DHT22;10325;51.468;5.804;2023-03-05T08:40:47;16.20;58.10
20335;DHT22;10325;51.468;5.804;2023-03-05T08:43:17;16.10;57.90
20335;DHT22;10325;51.468;5.804;2023-03-05T08:45:46;16.20;57.90
20335;DHT22;10325;51.468;5.804;2023-03-05T08:48:21;16.30;58.10
20335;DHT22;10325;51.468;5.804;2023-03-05T08:50:50;16.30;57.70
20335;DHT22;10325;51.468;5.804;2023-03-05T08:53:23;16.30;57.80
20335;DHT22;10325;51.468;5.804;2023-03-05T08:55:58;16.30;57.60
20335;DHT22;10325;51.468;5.804;2023-03-05T08:58:31;16.30;57.50
20335;DHT22;10325;51.468;5.804;2023-03-05T09:01:02;16.30;57.70
20335;DHT22;10325;51.468;5.804;2023-03-05T09:03:32;16.30;57.60
20335;DHT22;10325;51.468;5.804;2023-03-05T09:06:04;16.30;57.60
20335;DHT22;10325;51.468;5.804;2023-03-05T09:08:37;16.30;57.60
20335;DHT22;10325;51.468;5.804;2023-03-05T09:11:09;16.30;57.30
20335;DHT22;10325;51.468;5.804;2023-03-05T09:13:40;16.30;57.10
20335;DHT22;10325;51.468;5.804;2023-03-05T09:16:13;16.40;57.00
20335;DHT22;10325;51.468;5.804;2023-03-05T09:18:42;16.30;57.10
20335;DHT22;10325;51.468;5.804;2023-03-05T09:21:20;16.30;56.90
20335;DHT22;10325;51.468;5.804;2023-03-05T09:23:51;16.30;57.10
20335;DHT22;10325;51.468;5.804;2023-03-05T09:26:18;16.30;57.10
20335;DHT22;10325;51.468;5.804;2023-03-05T09:28:52;16.30;57.20
20335;DHT22;10325;51.468;5.804;2023-03-05T09:31:23;16.30;57.20
20335;DHT22;10325;51.468;5.804;2023-03-05T09:33:53;16.30;57.20
20335;DHT22;10325;51.468;5.804;2023-03-05T09:36:27;16.30;57.00
20335;DHT22;10325;51.468;5.804;2023-03-05T09:39:02;16.40;57.00
20335;DHT22;10325;51.468;5.804;2023-03-05T09:42:16;16.30;57.00
20335;DHT22;10325;51.468;5.804;2023-03-05T09:45:36;16.40;57.40
20335;DHT22;10325;51.468;5.804;2023-03-05T09:48:25;16.40;57.40
20335;DHT22;10325;51.468;5.804;2023-03-05T09:51:02;16.40;57.50
20335;DHT22;10325;51.468;5.804;2023-03-05T09:54:15;16.40;57.40
20335;DHT22;10325;51.468;5.804;2023-03-05T09:56:50;16.50;57.50
20335;DHT22;10325;51.468;5.804;2023-03-05T09:59:35;16.50;57.20
20335;DHT22;10325;51.468;5.804;2023-03-05T10:02:33;16.50;57.40
20335;DHT22;10325;51.468;5.804;2023-03-05T10:05:42;16.50;57.20
20335;DHT22;10325;51.468;5.804;2023-03-05T10:08:18;16.50;56.90
20335;DHT22;10325;51.468;5.804;2023-03-05T10:10:52;16.50;57.00
20335;DHT22;10325;51.468;5.804;2023-03-05T10:13:33;16.50;57.20
20335;DHT22;10325;51.468;5.804;2023-03-05T10:19:47;16.50;56.60
20335;DHT22;10325;51.468;5.804;2023-03-05T10:28:50;16.50;56.30
20335;DHT22;10325;51.468;5.804;2023-03-05T10:31:59;16.50;56.80
20335;DHT22;10325;51.468;5.804;2023-03-05T10:34:58;16.50;57.10
20335;DHT22;10325;51.468;5.804;2023-03-05T10:40:38;16.40;57.10
20335;DHT22;10325;51.468;5.804;2023-03-05T10:46:23;16.40;56.90
20335;DHT22;10325;51.468;5.804;2023-03-05T10:49:05;16.40;56.90
20335;DHT22;10325;51.468;5.804;2023-03-05T10:54:32;16.40;56.90
20335;DHT22;10325;51.468;5.804;2023-03-05T10:57:17;16.40;56.90
20335;DHT22;10325;51.468;5.804;2023-03-05T11:00:21;16.40;56.70
20335;DHT22;10325;51.468;5.804;2023-03-05T11:03:07;16.40;56.70
20335;DHT22;10325;51.468;5.804;2023-03-05T11:05:47;16.40;56.60
20335;DHT22;10325;51.468;5.804;2023-03-05T11:08:33;16.40;56.60
20335;DHT22;10325;51.468;5.804;2023-03-05T11:11:19;16.40;56.60
20335;DHT22;10325;51.468;5.804;2023-03-05T11:13:59;16.40;56.60
20335;DHT22;10325;51.468;5.804;2023-03-05T11:16:46;16.40;56.60
20335;DHT22;10325;51.468;5.804;2023-03-05T11:19:31;16.40;56.50
20335;DHT22;10325;51.468;5.804;2023-03-05T11:22:21;16.40;56.50
20335;DHT22;10325;51.468;5.804;2023-03-05T11:28:00;16.40;56.40
20335;DHT22;10325;51.468;5.804;2023-03-05T11:30:35;16.40;56.40
20335;DHT22;10325;51.468;5.804;2023-03-05T11:33:21;16.40;56.30
20335;DHT22;10325;51.468;5.804;2023-03-05T11:36:57;16.40;56.30
20335;DHT22;10325;51.468;5.804;2023-03-05T11:39:13;16.40;56.30
20335;DHT22;10325;51.468;5.804;2023-03-05T11:41:50;16.40;56.30
20335;DHT22;10325;51.468;5.804;2023-03-05T11:44:34;16.40;56.30
20335;DHT22;10325;51.468;5.804;2023-03-05T11:50:19;16.40;56.20
20335;DHT22;10325;51.468;5.804;2023-03-05T11:52:58;16.40;56.20
20335;DHT22;10325;51.468;5.804;2023-03-05T11:55:53;16.40;56.20
20335;DHT22;10325;51.468;5.804;2023-03-05T11:58:45;16.40;56.10
20335;DHT22;10325;51.468;5.804;2023-03-05T12:01:28;16.40;56.10
20335;DHT22;10325;51.468;5.804;2023-03-05T12:04:11;16.40;56.70
20335;DHT22;10325;51.468;5.804;2023-03-05T12:06:57;16.40;56.10
20335;DHT22;10325;51.468;5.804;2023-03-05T12:09:44;16.40;56.10
20335;DHT22;10325;51.468;5.804;2023-03-05T12:21:27;16.40;57.20
20335;DHT22;10325;51.468;5.804;2023-03-05T12:24:02;16.40;57.10
20335;DHT22;10325;51.468;5.804;2023-03-05T12:26:58;16.40;57.10
20335;DHT22;10325;51.468;5.804;2023-03-05T12:29:49;16.40;56.90
20335;DHT22;10325;51.468;5.804;2023-03-05T12:35:38;16.40;56.80
20335;DHT22;10325;51.468;5.804;2023-03-05T12:38:28;16.40;56.80
20335;DHT22;10325;51.468;5.804;2023-03-05T12:41:31;16.40;56.70
20335;DHT22;10325;51.468;5.804;2023-03-05T12:46:41;16.40;56.60
20335;DHT22;10325;51.468;5.804;2023-03-05T12:49:27;16.40;56.60
20335;DHT22;10325;51.468;5.804;2023-03-05T12:51:57;16.40;56.60
20335;DHT22;10325;51.468;5.804;2023-03-05T12:54:39;16.40;56.60
20335;DHT22;10325;51.468;5.804;2023-03-05T12:57:18;16.40;57.00
20335;DHT22;10325;51.468;5.804;2023-03-05T13:02:50;16.40;56.80
20335;DHT22;10325;51.468;5.804;2023-03-05T13:05:37;16.40;57.40
20335;DHT22;10325;51.468;5.804;2023-03-05T13:08:21;16.40;57.40
20335;DHT22;10325;51.468;5.804;2023-03-05T13:11:19;16.40;57.30
20335;DHT22;10325;51.468;5.804;2023-03-05T13:13:51;16.50;57.30
20335;DHT22;10325;51.468;5.804;2023-03-05T13:16:29;16.40;57.20
20335;DHT22;10325;51.468;5.804;2023-03-05T13:19:00;16.40;57.20
20335;DHT22;10325;51.468;5.804;2023-03-05T13:21:32;16.40;57.10
20335;DHT22;10325;51.468;5.804;2023-03-05T13:24:17;16.40;57.00
20335;DHT22;10325;51.468;5.804;2023-03-05T13:26:46;16.40;57.00
20335;DHT22;10325;51.468;5.804;2023-03-05T13:29:24;16.40;56.80
20335;DHT22;10325;51.468;5.804;2023-03-05T13:32:29;16.40;56.80
20335;DHT22;10325;51.468;5.804;2023-03-05T13:35:02;16.50;56.80
20335;DHT22;10325;51.468;5.804;2023-03-05T13:37:36;16.40;56.60
20335;DHT22;10325;51.468;5.804;2023-03-05T13:40:27;16.40;56.60
20335;DHT22;10325;51.468;5.804;2023-03-05T13:43:15;16.50;56.60
20335;DHT22;10325;51.468;5.804;2023-03-05T13:45:56;16.50;56.50
20335;DHT22;10325;51.468;5.804;2023-03-05T13:48:26;16.50;56.50
20335;DHT22;10325;51.468;5.804;2023-03-05T13:50:57;16.50;56.50
20335;DHT22;10325;51.468;5.804;2023-03-05T13:53:30;16.40;56.30
20335;DHT22;10325;51.468;5.804;2023-03-05T13:56:18;16.40;56.30
20335;DHT22;10325;51.468;5.804;2023-03-05T13:58:55;16.50;56.30
20335;DHT22;10325;51.468;5.804;2023-03-05T14:01:42;16.40;56.20
20335;DHT22;10325;51.468;5.804;2023-03-05T14:04:28;16.40;56.20
20335;DHT22;10325;51.468;5.804;2023-03-05T14:07:34;16.40;56.20
20335;DHT22;10325;51.468;5.804;2023-03-05T14:10:38;16.50;56.20
20335;DHT22;10325;51.468;5.804;2023-03-05T14:13:17;16.40;56.10
20335;DHT22;10325;51.468;5.804;2023-03-05T14:19:02;16.40;56.10
20335;DHT22;10325;51.468;5.804;2023-03-05T14:21:45;16.40;56.10
20335;DHT22;10325;51.468;5.804;2023-03-05T14:24:24;16.40;56.10
20335;DHT22;10325;51.468;5.804;2023-03-05T14:27:14;16.40;56.10
20335;DHT22;10325;51.468;5.804;2023-03-05T14:29:45;16.40;56.10
20335;DHT22;10325;51.468;5.804;2023-03-05T14:32:35;16.50;56.10
20335;DHT22;10325;51.468;5.804;2023-03-05T14:35:06;16.50;56.10
20335;DHT22;10325;51.468;5.804;2023-03-05T14:37:37;16.50;56.20
20335;DHT22;10325;51.468;5.804;2023-03-05T14:40:29;16.50;56.30
20335;DHT22;10325;51.468;5.804;2023-03-05T14:45:43;16.50;58.30
20335;DHT22;10325;51.468;5.804;2023-03-05T14:48:16;16.50;59.40
20335;DHT22;10325;51.468;5.804;2023-03-05T14:50:49;16.50;60.40
20335;DHT22;10325;51.468;5.804;2023-03-05T14:53:38;16.50;60.70
20335;DHT22;10325;51.468;5.804;2023-03-05T14:56:22;16.50;60.90
20335;DHT22;10325;51.468;5.804;2023-03-05T14:58:55;16.50;61.30
20335;DHT22;10325;51.468;5.804;2023-03-05T15:01:27;16.40;61.60
20335;DHT22;10325;51.468;5.804;2023-03-05T15:04:01;16.40;61.80
20335;DHT22;10325;51.468;5.804;2023-03-05T15:06:38;16.50;61.90
20335;DHT22;10325;51.468;5.804;2023-03-05T15:09:11;16.40;62.10
20335;DHT22;10325;51.468;5.804;2023-03-05T15:11:42;16.40;62.40
20335;DHT22;10325;51.468;5.804;2023-03-05T15:14:14;16.40;62.50
20335;DHT22;10325;51.468;5.804;2023-03-05T15:16:45;16.50;62.60
20335;DHT22;10325;51.468;5.804;2023-03-05T15:19:17;16.40;62.90
20335;DHT22;10325;51.468;5.804;2023-03-05T15:21:48;16.40;63.00
20335;DHT22;10325;51.468;5.804;2023-03-05T15:24:16;16.40;62.80
20335;DHT22;10325;51.468;5.804;2023-03-05T15:26:48;16.50;62.90
20335;DHT22;10325;51.468;5.804;2023-03-05T15:29:19;16.40;63.00
20335;DHT22;10325;51.468;5.804;2023-03-05T15:31:54;16.40;63.40
20335;DHT22;10325;51.468;5.804;2023-03-05T15:34:27;16.40;63.10
20335;DHT22;10325;51.468;5.804;2023-03-05T15:36:58;16.40;63.20
20335;DHT22;10325;51.468;5.804;2023-03-05T15:39:31;16.40;63.30
20335;DHT22;10325;51.468;5.804;2023-03-05T15:42:03;16.40;63.20
20335;DHT22;10325;51.468;5.804;2023-03-05T15:44:33;16.40;63.40
20335;DHT22;10325;51.468;5.804;2023-03-05T15:47:03;16.40;63.60
20335;DHT22;10325;51.468;5.804;2023-03-05T15:49:33;16.40;63.50
20335;DHT22;10325;51.468;5.804;2023-03-05T15:52:03;16.40;63.70
20335;DHT22;10325;51.468;5.804;2023-03-05T15:54:36;16.30;63.70
20335;DHT22;10325;51.468;5.804;2023-03-05T15:57:09;16.40;63.60
20335;DHT22;10325;51.468;5.804;2023-03-05T15:59:41;16.40;64.50
20335;DHT22;10325;51.468;5.804;2023-03-05T16:02:11;16.30;63.60
20335;DHT22;10325;51.468;5.804;2023-03-05T16:04:38;16.30;63.80
20335;DHT22;10325;51.468;5.804;2023-03-05T16:07:12;16.30;63.90
20335;DHT22;10325;51.468;5.804;2023-03-05T16:09:45;16.40;63.90
20335;DHT22;10325;51.468;5.804;2023-03-05T16:12:26;16.40;63.90
20335;DHT22;10325;51.468;5.804;2023-03-05T16:14:59;16.30;63.90
20335;DHT22;10325;51.468;5.804;2023-03-05T16:17:42;16.30;64.40
20335;DHT22;10325;51.468;5.804;2023-03-05T16:20:12;16.30;63.80
20335;DHT22;10325;51.468;5.804;2023-03-05T16:22:43;16.30;64.00
20335;DHT22;10325;51.468;5.804;2023-03-05T16:25:13;16.30;63.80
20335;DHT22;10325;51.468;5.804;2023-03-05T16:27:42;16.30;63.70
20335;DHT22;10325;51.468;5.804;2023-03-05T16:30:18;16.30;64.00
20335;DHT22;10325;51.468;5.804;2023-03-05T16:32:49;16.30;63.70
20335;DHT22;10325;51.468;5.804;2023-03-05T16:35:26;16.30;64.00
20335;DHT22;10325;51.468;5.804;2023-03-05T16:38:00;16.30;63.90
20335;DHT22;10325;51.468;5.804;2023-03-05T16:40:27;16.30;63.80
20335;DHT22;10325;51.468;5.804;2023-03-05T16:43:23;16.20;63.80
20335;DHT22;10325;51.468;5.804;2023-03-05T16:45:53;16.20;63.70
20335;DHT22;10325;51.468;5.804;2023-03-05T16:48:23;16.30;63.50
20335;DHT22;10325;51.468;5.804;2023-03-05T16:50:54;16.20;63.40
20335;DHT22;10325;51.468;5.804;2023-03-05T16:53:30;16.20;63.40
20335;DHT22;10325;51.468;5.804;2023-03-05T16:56:02;16.20;63.50
20335;DHT22;10325;51.468;5.804;2023-03-05T16:58:34;16.20;63.40
20335;DHT22;10325;51.468;5.804;2023-03-05T17:01:14;16.30;63.40
20335;DHT22;10325;51.468;5.804;2023-03-05T17:03:46;16.20;63.30
20335;DHT22;10325;51.468;5.804;2023-03-05T17:06:19;16.30;63.30
20335;DHT22;10325;51.468;5.804;2023-03-05T17:08:51;16.20;63.40